Flight Track Log - Related Links

Times and Time Zones

All times are in EDT time to prevent confusion due to time zone crossing. See the EMD21 flight status page for this flight to view local times or setup timezone preferences in your user account.

Time Position Orientation Groundspeed Altitude Reporting Facility
EDT Latitude Longitude Course Direction KTS MPH feet Rate Location/Type
Sun 12:38:24 AM 34.9086 -95.6994 44° Northeast 213 245 5,000  Level Fort Worth Center
Sun 12:39:24 AM 34.9392 -95.6558 49° Northeast 178 205 6,100 1,300 Climbing Fort Worth Center
Sun 12:40:24 AM 34.9764 -95.6194 39° Northeast 171 197 7,600 950 Climbing Fort Worth Center
Sun 12:41:24 AM 35.0069 -95.5656 55° Northeast 172 198 8,000 200 Climbing Fort Worth Center
Sun 12:42:24 AM 35.0375 -95.5219 49° Northeast 190 219 8,000  Level Fort Worth Center
Sun 12:43:00 AM 35.0643 -95.5095 44° Northeast  Level FlightAware Approximate
Sun 12:43:24 AM 35.0847 -95.4675 43° Northeast 196 226 8,000  Level Fort Worth Center
Sun 12:44:24 AM 35.1211 -95.4058 54° Northeast 206 237 8,000  Level Fort Worth Center
Sun 12:45:27 AM 35.1722 -95.3411 46° Northeast 213 245 8,000  Level Fort Worth Center
Sun 12:46:27 AM 35.2067 -95.2817 55° Northeast 213 245 8,000  Level Fort Worth Center
Sun 12:47:27 AM 35.2347 -95.2150 63° Northeast 218 251 8,000  Level Fort Worth Center
Sun 12:48:26 AM 35.2714 -95.1606 50° Northeast 218 251 8,000  Level Fort Worth Center
Sun 12:49:26 AM 35.3078 -95.1011 53° Northeast 218 251 8,000  Level Fort Worth Center
Sun 12:50:26 AM 35.3397 -95.0264 62° Northeast 218 251 8,000  Level Fort Worth Center
Sun 12:51:26 AM 35.3761 -94.9619 55° Northeast 223 257 8,000  Level Fort Worth Center
Sun 12:52:26 AM 35.4125 -94.8997 54° Northeast 223 257 8,000  Level Fort Worth Center
Sun 12:54:00 AM 35.4800 -94.8261 42° Northeast  Level FlightAware Approximate
Sun 01:01:00 AM 35.7785 -94.4823 51° Northeast  Level FlightAware Approximate
Sun 01:02:00 AM 35.8151 -94.4274 51° Northeast  Level FlightAware Approximate
Sun 01:03:00 AM 35.8517 -94.3725 51° Northeast  Level FlightAware Approximate
Sun 01:04:00 AM 35.8860 -94.3298 47° Northeast  Level FlightAware Approximate
Sun 01:05:00 AM 35.9252 -94.2776 47° Northeast  Level FlightAware Approximate
Sun 01:06:00 AM 35.9605 -94.2214 53° Northeast  Level FlightAware Approximate
Sun 01:07:00 AM 35.9983 -94.1683 39° Northeast  Level FlightAware Approximate
Sun 01:08:00 AM 36.0000 -94.1667 39° Northeast  Level FlightAware Approximate
Sun 01:09:00 AM 36.0051 -94.1701 39° Northeast  Level Estimated
Sun 01:10:00 AM 36.0000 -94.1667 39° Northeast  Level FlightAware Approximate
Sun 01:11:00 AM 36.0051 -94.1701 39° Northeast  Level Estimated
Sun 01:12:00 AM 36.0000 -94.1667 39° Northeast  Level FlightAware Approximate
Sun 01:13:00 AM 36.0051 -94.1701 39° Northeast  Level Estimated
Sun 01:14:00 AM 36.0000 -94.1667 39° Northeast  Level FlightAware Approximate
Sun 01:15:00 AM 36.0051 -94.1701 39° Northeast  Level Estimated
Sun 01:16:00 AM 36.0000 -94.1667 39° Northeast  Level FlightAware Approximate
Sun 01:17:00 AM 36.0051 -94.1701 39° Northeast  Level Estimated
Sun 01:18:00 AM 36.0000 -94.1667 39° Northeast  Level FlightAware Approximate
Sun 01:19:00 AM 36.0051 -94.1701 39° Northeast  Level Estimated
Sun 01:20:00 AM 36.0000 -94.1667 39° Northeast  Level FlightAware Approximate
Sun 01:21:00 AM 36.0051 -94.1701 39° Northeast  Level Estimated
Sun 01:22:00 AM 36.0000 -94.1667 39° Northeast  Level FlightAware Approximate
Sun 01:23:00 AM 36.0051 -94.1701 39° Northeast  Level Estimated

Login

Don't have an account? Register now (free) for customized features, flight alerts, and more!